Time;durP1;ratioP1;P1;durP2;ratioP2;P2;SDS_P1;SDS_P2;PMS_P1;PMS_P2;Temp;Humidity;BMP_temperature;BMP_pressure;BME280_temperature;BME280_humidity;BME280_pressure;Samples;Min_cycle;Max_cycle;Signal;HPM_P1;HPM_P2
2022/11/24 00:00:10;;;;;;;7.25;1.98;;;8.60;99.90;;;;;;20612863;28;20101;-42
2022/11/24 00:10:11;;;;;;;3.58;1.48;;;8.70;99.90;;;;;;20618019;28;20109;-42
2022/11/24 00:20:12;;;;;;;4.28;1.80;;;8.60;99.90;;;;;;20598650;28;20604;-41
2022/11/24 00:30:13;;;;;;;8.65;3.00;;;8.60;99.90;;;;;;20622654;28;20058;-43
2022/11/24 00:40:14;;;;;;;4.75;1.10;;;8.50;99.90;;;;;;20607633;28;20381;-42
2022/11/24 00:50:15;;;;;;;3.40;1.00;;;8.60;99.90;;;;;;20617986;28;20947;-42
2022/11/24 01:00:17;;;;;;;8.85;3.30;;;8.50;99.90;;;;;;20613185;28;20132;-42
2022/11/24 01:10:18;;;;;;;5.18;1.80;;;8.60;99.90;;;;;;20614131;28;20073;-42
2022/11/24 01:20:19;;;;;;;16.08;2.45;;;8.50;99.90;;;;;;20614052;28;20089;-42
2022/11/24 01:30:21;;;;;;;3.28;1.85;;;8.40;99.90;;;;;;20608827;28;20140;-42
2022/11/24 01:40:22;;;;;;;6.43;1.40;;;8.30;99.90;;;;;;20618856;28;20199;-43
2022/11/24 01:50:24;;;;;;;4.43;1.60;;;8.30;99.90;;;;;;20633376;28;20086;-42
2022/11/24 02:00:25;;;;;;;3.58;1.52;;;8.40;99.90;;;;;;20625108;28;20138;-42
2022/11/24 02:10:26;;;;;;;3.75;2.05;;;8.40;99.90;;;;;;20634055;28;20078;-42
2022/11/24 02:20:27;;;;;;;4.22;1.80;;;8.60;99.90;;;;;;20629037;28;20125;-42
2022/11/24 02:30:28;;;;;;;3.75;1.85;;;8.60;99.90;;;;;;20628925;28;20447;-42
2022/11/24 02:40:30;;;;;;;3.78;1.85;;;8.70;99.90;;;;;;20625203;28;20176;-42
2022/11/24 02:50:31;;;;;;;7.43;1.75;;;8.70;99.90;;;;;;20622323;28;20066;-43
2022/11/24 03:00:32;;;;;;;7.95;2.08;;;8.70;99.90;;;;;;20618093;28;20082;-42
2022/11/24 03:10:33;;;;;;;2.70;1.23;;;8.70;99.90;;;;;;20622517;28;20069;-42
2022/11/24 03:20:34;;;;;;;2.30;0.98;;;8.60;99.90;;;;;;20616681;28;20093;-42
2022/11/24 03:30:35;;;;;;;3.70;1.05;;;8.50;99.90;;;;;;20623369;28;20112;-42
2022/11/24 03:40:36;;;;;;;0.95;0.40;;;8.50;99.90;;;;;;20619625;28;20221;-42
2022/11/24 03:50:37;;;;;;;2.45;1.17;;;8.60;99.90;;;;;;20610982;28;20112;-42
2022/11/24 04:00:38;;;;;;;1.75;0.80;;;8.60;99.90;;;;;;20620312;28;20137;-42
2022/11/24 04:10:40;;;;;;;3.47;1.63;;;8.60;99.90;;;;;;20617161;28;20093;-41
2022/11/24 04:20:41;;;;;;;3.08;1.20;;;8.70;99.90;;;;;;20618647;28;20120;-42
2022/11/24 04:30:43;;;;;;;7.70;1.88;;;8.80;99.90;;;;;;20622606;28;20089;-42
2022/11/24 04:40:44;;;;;;;3.22;1.48;;;8.90;99.90;;;;;;20621288;28;20148;-42
2022/11/24 04:50:45;;;;;;;11.02;2.50;;;8.80;99.90;;;;;;20608539;28;20148;-42
2022/11/24 05:00:46;;;;;;;2.83;1.17;;;8.80;99.90;;;;;;20613822;28;20089;-42
2022/11/24 05:10:47;;;;;;;2.25;0.60;;;8.80;99.90;;;;;;20618530;28;20160;-42
2022/11/24 05:20:48;;;;;;;3.40;0.70;;;8.50;99.90;;;;;;20605654;28;20084;-43
2022/11/24 05:30:49;;;;;;;3.13;0.85;;;8.40;99.90;;;;;;20612817;28;20109;-43
2022/11/24 05:40:50;;;;;;;1.95;0.55;;;8.10;99.90;;;;;;20607756;28;20137;-42
2022/11/24 05:50:54;;;;;;;0.80;0.20;;;8.00;99.90;;;;;;20612612;28;20144;-42
2022/11/24 06:00:55;;;;;;;1.40;0.10;;;7.90;99.90;;;;;;20605704;28;20128;-42
2022/11/24 06:11:15;;;;;;;0.50;0.20;;;7.80;99.90;;;;;;20600023;28;20049;-42
2022/11/24 06:21:17;;;;;;;1.38;0.30;;;7.80;99.90;;;;;;20596045;28;20204;-42
2022/11/24 06:31:18;;;;;;;2.60;1.20;;;7.80;99.90;;;;;;20635026;28;20209;-42
2022/11/24 06:41:19;;;;;;;6.20;1.50;;;7.80;99.90;;;;;;20617431;28;20091;-43
2022/11/24 06:51:20;;;;;;;2.03;0.93;;;7.80;99.90;;;;;;20624325;28;20051;-42
2022/11/24 07:01:26;;;;;;;2.03;0.70;;;7.80;99.90;;;;;;20645799;28;20051;-42
2022/11/24 07:11:27;;;;;;;5.68;2.25;;;7.90;99.90;;;;;;20652024;28;20038;-41
2022/11/24 07:21:29;;;;;;;3.28;1.95;;;8.00;99.90;;;;;;20635207;28;20042;-42
2022/11/24 07:31:30;;;;;;;4.25;2.13;;;7.90;99.90;;;;;;20625786;28;20085;-42
2022/11/24 07:41:31;;;;;;;6.03;2.50;;;7.90;99.90;;;;;;20630914;28;20046;-41
2022/11/24 07:51:32;;;;;;;4.28;1.98;;;7.80;99.90;;;;;;20629166;28;20522;-41
2022/11/24 08:01:33;;;;;;;4.93;2.22;;;7.80;99.90;;;;;;20609805;28;20042;-41
2022/11/24 08:11:35;;;;;;;6.78;2.92;;;7.70;99.90;;;;;;20646067;28;20097;-43
2022/11/24 08:21:37;;;;;;;4.90;1.27;;;7.70;99.90;;;;;;20638423;28;21357;-42
2022/11/24 08:31:38;;;;;;;13.20;2.83;;;7.70;99.90;;;;;;20630865;28;20041;-43
2022/11/24 08:41:39;;;;;;;2.53;1.48;;;7.70;99.90;;;;;;20617118;28;20497;-41
2022/11/24 08:51:41;;;;;;;14.88;3.00;;;7.80;99.90;;;;;;20628501;28;20091;-42
2022/11/24 09:01:42;;;;;;;3.15;1.63;;;7.90;99.90;;;;;;20596426;28;20163;-42
2022/11/24 09:11:43;;;;;;;3.35;1.27;;;8.20;99.90;;;;;;20627385;28;20100;-42
2022/11/24 09:21:44;;;;;;;2.75;0.93;;;8.40;99.90;;;;;;20615753;28;20080;-41
2022/11/24 09:31:45;;;;;;;11.90;1.90;;;8.60;99.90;;;;;;20622979;28;20036;-42
2022/11/24 09:42:09;;;;;;;1.88;0.95;;;8.70;99.90;;;;;;20617311;28;20042;-42
2022/11/24 09:52:17;;;;;;;3.63;1.10;;;8.80;99.90;;;;;;20631582;28;20513;-42
2022/11/24 10:02:18;;;;;;;2.92;1.27;;;9.10;99.90;;;;;;20575433;28;20580;-42
2022/11/24 10:13:03;;;;;;;3.83;0.90;;;9.20;99.90;;;;;;20600175;28;20546;-42
2022/11/24 10:23:44;;;;;;;3.05;0.98;;;9.60;99.90;;;;;;20619995;28;20342;-42
2022/11/24 10:33:46;;;;;;;2.67;1.00;;;9.90;99.90;;;;;;20621456;28;20668;-42
2022/11/24 10:43:47;;;;;;;5.10;1.88;;;10.20;99.90;;;;;;20624193;28;20403;-42
2022/11/24 10:53:52;;;;;;;7.43;2.70;;;9.70;99.90;;;;;;20638151;28;20109;-42
2022/11/24 11:03:58;;;;;;;4.57;1.08;;;10.10;99.90;;;;;;20625827;28;20382;-42
2022/11/24 11:14:02;;;;;;;2.65;1.30;;;10.90;99.90;;;;;;20628357;28;20050;-42
2022/11/24 11:24:13;;;;;;;3.17;1.35;;;11.40;99.90;;;;;;20615886;28;20067;-43
2022/11/24 11:34:18;;;;;;;8.63;1.83;;;11.80;99.90;;;;;;20583232;28;20113;-43
2022/11/24 11:44:34;;;;;;;4.78;1.70;;;12.10;99.90;;;;;;20626036;28;20089;-43
2022/11/24 11:54:54;;;;;;;2.10;1.00;;;12.70;99.90;;;;;;20614055;28;20094;-42
2022/11/24 12:05:21;;;;;;;3.88;1.20;;;12.70;99.90;;;;;;20608774;28;20571;-43
2022/11/24 12:15:40;;;;;;;2.20;0.98;;;12.90;99.90;;;;;;20571033;28;20085;-42
2022/11/24 12:25:46;;;;;;;2.42;0.75;;;13.30;99.90;;;;;;20613459;28;20887;-42
2022/11/24 12:36:15;;;;;;;2.17;1.05;;;13.30;99.90;;;;;;20617353;28;20058;-42
2022/11/24 12:46:16;;;;;;;;;;;13.20;99.90;;;;;;20631810;28;20113;-42
2022/11/24 12:56:28;;;;;;;4.68;1.35;;;13.60;99.90;;;;;;20627006;28;19921;-43
2022/11/24 13:07:00;;;;;;;2.92;1.42;;;13.60;99.90;;;;;;20644379;28;20058;-43
2022/11/24 13:17:22;;;;;;;5.18;1.90;;;13.70;99.90;;;;;;20627068;28;20217;-42
2022/11/24 13:27:27;;;;;;;2.72;1.40;;;13.20;99.90;;;;;;20628212;28;20058;-42
2022/11/24 13:37:28;;;;;;;4.80;2.25;;;13.00;99.90;;;;;;20628436;28;20057;-43
2022/11/24 13:47:38;;;;;;;2.05;0.90;;;12.40;99.90;;;;;;20635111;28;20046;-42
2022/11/24 13:57:42;;;;;;;4.78;1.95;;;12.00;99.90;;;;;;20605374;28;20201;-42
2022/11/24 14:07:46;;;;;;;4.60;1.00;;;11.70;99.90;;;;;;20631112;28;20221;-42
2022/11/24 14:17:47;;;;;;;4.55;1.75;;;11.80;99.90;;;;;;20608664;28;20191;-43
2022/11/24 14:27:48;;;;;;;4.78;1.50;;;11.80;99.90;;;;;;20621035;28;20046;-42
2022/11/24 14:37:49;;;;;;;3.55;1.30;;;11.40;99.90;;;;;;20612366;28;20065;-43
2022/11/24 14:47:50;;;;;;;4.72;1.75;;;11.20;99.90;;;;;;20634116;28;20046;-42
2022/11/24 14:57:51;;;;;;;5.05;1.98;;;11.10;99.90;;;;;;20626865;28;20046;-42
2022/11/24 15:08:01;;;;;;;2.53;1.00;;;10.80;99.90;;;;;;20629350;28;20050;-42
2022/11/24 15:18:04;;;;;;;3.45;2.05;;;10.70;99.90;;;;;;20632460;28;20070;-43
2022/11/24 15:28:07;;;;;;;9.70;2.30;;;10.70;99.90;;;;;;20626834;28;20113;-43
2022/11/24 15:38:08;;;;;;;5.80;2.33;;;10.50;99.90;;;;;;20624609;28;20089;-42
2022/11/24 15:48:09;;;;;;;5.15;1.70;;;10.30;99.90;;;;;;20586141;28;20165;-42
2022/11/24 15:58:12;;;;;;;5.13;1.50;;;10.30;99.90;;;;;;20625008;28;20082;-42
2022/11/24 16:08:15;;;;;;;3.47;1.88;;;10.10;99.90;;;;;;20604633;28;20049;-42
2022/11/24 16:18:16;;;;;;;2.80;1.10;;;10.00;99.90;;;;;;20616014;28;20046;-42
2022/11/24 16:28:17;;;;;;;6.30;2.33;;;10.00;99.90;;;;;;20605616;28;20076;-42
2022/11/24 16:38:19;;;;;;;3.28;1.13;;;10.00;99.90;;;;;;20624026;28;20050;-42
2022/11/24 16:48:20;;;;;;;4.72;1.48;;;9.90;99.90;;;;;;20597321;28;20302;-42
2022/11/24 16:58:21;;;;;;;4.35;1.77;;;9.90;99.90;;;;;;20586261;28;20046;-41
2022/11/24 17:08:22;;;;;;;4.50;1.90;;;9.80;99.90;;;;;;20615405;28;20046;-42
2022/11/24 17:18:23;;;;;;;3.17;1.15;;;9.80;99.90;;;;;;20634995;28;20145;-42
2022/11/24 17:28:24;;;;;;;4.65;1.95;;;9.80;99.90;;;;;;20616790;28;20053;-42
2022/11/24 17:38:27;;;;;;;5.60;2.65;;;9.80;99.90;;;;;;20591984;28;20074;-41
2022/11/24 17:48:29;;;;;;;3.95;1.85;;;9.80;99.90;;;;;;20585620;28;20525;-42
2022/11/24 17:58:32;;;;;;;3.70;1.88;;;9.90;99.90;;;;;;20596852;28;20136;-42
2022/11/24 18:08:34;;;;;;;11.25;3.13;;;9.80;99.90;;;;;;20588792;28;20687;-41
2022/11/24 18:18:35;;;;;;;3.47;1.10;;;9.80;99.90;;;;;;20591700;28;20143;-42
2022/11/24 18:28:36;;;;;;;3.67;1.65;;;9.70;99.90;;;;;;20609902;28;20050;-42
2022/11/24 18:38:37;;;;;;;2.95;1.63;;;9.60;99.90;;;;;;20610267;28;20662;-42
2022/11/24 18:48:38;;;;;;;8.85;2.30;;;9.50;99.90;;;;;;20609680;28;20495;-42
2022/11/24 18:58:39;;;;;;;6.65;2.00;;;9.40;99.90;;;;;;20629107;28;20069;-42
2022/11/24 19:08:40;;;;;;;13.50;3.45;;;9.40;99.90;;;;;;20601032;28;20045;-41
2022/11/24 19:18:41;;;;;;;13.05;3.58;;;9.40;99.90;;;;;;20618183;28;20443;-42
2022/11/24 19:28:42;;;;;;;5.13;1.80;;;9.30;99.90;;;;;;20619631;28;20205;-42
2022/11/24 19:38:51;;;;;;;6.13;2.17;;;9.20;99.90;;;;;;20623183;28;20182;-41
2022/11/24 19:48:54;;;;;;;3.95;2.28;;;9.20;99.90;;;;;;20630832;28;20082;-42
2022/11/24 19:58:56;;;;;;;3.90;1.65;;;9.10;99.90;;;;;;20601937;28;20592;-41
2022/11/24 20:08:59;;;;;;;2.22;0.90;;;9.10;99.90;;;;;;20615417;28;20524;-42
2022/11/24 20:19:05;;;;;;;6.03;2.53;;;9.00;99.90;;;;;;20613631;28;20133;-42
2022/11/24 20:29:08;;;;;;;4.95;1.60;;;9.00;99.90;;;;;;20618694;28;20172;-42
2022/11/24 20:39:17;;;;;;;3.03;1.23;;;9.10;99.90;;;;;;20623544;28;20181;-43
2022/11/24 20:49:20;;;;;;;7.18;1.70;;;9.10;99.90;;;;;;20604456;28;20107;-42
2022/11/24 20:59:23;;;;;;;8.27;1.38;;;9.20;99.90;;;;;;20626404;28;20074;-41
2022/11/24 21:09:26;;;;;;;6.38;2.28;;;9.20;99.90;;;;;;20623230;28;20484;-42
2022/11/24 21:19:27;;;;;;;3.95;1.98;;;9.20;99.90;;;;;;20626151;28;20088;-42
2022/11/24 21:29:28;;;;;;;3.38;1.00;;;9.40;99.90;;;;;;20618854;28;20172;-42
2022/11/24 21:39:29;;;;;;;2.15;1.02;;;9.40;99.90;;;;;;20622130;28;20543;-41
2022/11/24 21:49:30;;;;;;;2.38;0.98;;;9.60;99.90;;;;;;20599639;28;20792;-42
2022/11/24 21:59:31;;;;;;;4.53;1.60;;;9.60;99.90;;;;;;20633515;28;20038;-42
2022/11/24 22:09:32;;;;;;;3.22;1.33;;;9.70;99.90;;;;;;20650904;28;20054;-41
2022/11/24 22:19:33;;;;;;;5.25;2.95;;;9.70;99.90;;;;;;20647108;28;20093;-42
2022/11/24 22:29:34;;;;;;;4.68;1.67;;;9.60;99.90;;;;;;20640820;28;20053;-42
2022/11/24 22:39:35;;;;;;;4.18;1.20;;;9.60;99.90;;;;;;20630955;28;20112;-42
2022/11/24 22:49:36;;;;;;;6.28;2.00;;;9.70;99.90;;;;;;20630726;28;20510;-41
2022/11/24 22:59:37;;;;;;;4.72;2.60;;;9.70;99.90;;;;;;20635646;28;20132;-42
2022/11/24 23:09:38;;;;;;;2.85;0.80;;;9.70;99.90;;;;;;20641293;28;20572;-41
2022/11/24 23:19:39;;;;;;;5.20;1.67;;;9.80;99.90;;;;;;20632548;28;20064;-41
2022/11/24 23:29:40;;;;;;;3.75;1.40;;;9.60;99.90;;;;;;20629050;28;21846;-40
2022/11/24 23:39:41;;;;;;;8.55;2.45;;;9.20;99.90;;;;;;20595201;28;20038;-41
2022/11/24 23:49:42;;;;;;;20.10;2.42;;;9.00;99.90;;;;;;20570908;28;20050;-41
2022/11/24 23:59:43;;;;;;;5.65;1.52;;;8.90;99.90;;;;;;20572140;28;20728;-42
